Terminal Aerodrome Forecast
Issued by NWS Sioux Falls, SD

Home | Current Version | Previous Version | Graphics & Text | Print | Product List | Glossary On
Versions: 1 2 3 4 5 6 7 8 9 10 11 12 13 14 15
000
FTUS43 KFSD 251258 AAA
TAFHON
TAF AMD
KHON 251258Z 2513/2612 02004KT P6SM OVC015
      TEMPO 2513/2515 2SM -SN
     FM251500 01007KT 2SM -SN OVC015
      TEMPO 2515/2519 1SM -SN
     FM252100 36015KT 3SM -SN BR OVC010
     FM260400 35012KT P6SM OVC011=

USA.gov is the U.S. government's official web portal to all federal, state and local government web resources and services.